Vaaraa aiheuttavia sääilmiöitä ei ole odotettavissa.    Ei varoituksia

Webkamera Lisätietoa Webcam


Yksityisiä sääasemia lähellä:

Sääasema Juupajoki

Sääasema Orivesi

Sääasema Muurame

Sääasema Jyväskylä

Sääasema Vihtavuori


Löydät sääaseman tiedot myös:

Finland Weather Exchange

European Weather Network

Weather Underground

AWEKAS

Windy.com



Säätiedot lähimmiltä METAR asemilta

   
EFHA - Halli (Fin-Afb), Finland
Etäisyys asemalta: Kaakko 25 km
Päivitetty: 21.01.2020 10:50
Selkeää  
Selkeää  
   Tuuli: Länsiluode 9.8 m/s<br />Puuska 9.8 m/s
Tuuli: Länsiluode 9.8 m/s
Puuska 9.8 m/s
Lämpötila: 4°C
Tuulen hyytävyys: -2°C
Kastepiste: -4°C
Kosteus: 56%
Ilmanpaine: 1003 hPa
Näkyvyys: Enemmän kuin 10 km
Pilvitiedot: Selkeää
EFHA 210850Z 30019G30KT CAVOK 04/M04 Q1003
EFJY - Jyvaskyla (Mil/Civ), Finland
Etäisyys asemalta: Koillinen 75 km
Päivitetty: 21.01.2020 10:50
Selkeää  
Selkeää  
   Tuuli: Länsiluode 9.8 m/s
Tuuli: Länsiluode 9.8 m/s
Lämpötila: 4°C
Tuulen hyytävyys: -2°C
Kastepiste: -4°C
Kosteus: 56%
Ilmanpaine: 1000 hPa
Näkyvyys: Enemmän kuin 10 km
Pilvitiedot: Selkeää
EFJY 210850Z AUTO 29019KT 250V310 CAVOK 04/M04 Q1000
EFTP - Tampere/Pirkkala, Finland
Etäisyys asemalta: Lounas 81 km
Päivitetty: 21.01.2020 10:50
Selkeää  
Selkeää  
   Tuuli: Länsi 6.2 m/s<br />Puuska 6.2 m/s
Tuuli: Länsi 6.2 m/s
Puuska 6.2 m/s
Lämpötila: 4°C
Tuulen hyytävyys: -1°C
Kastepiste: -2°C
Kosteus: 65%
Ilmanpaine: 1007 hPa
Näkyvyys: Enemmän kuin 10 km
Pilvitiedot: Selkeää
EFTP 210850Z 28012G22KT 240V330 CAVOK 04/M02 Q1007
EFSI - Seinajoki-Ilmajoki, Finland
Etäisyys asemalta: Luode 114 km
Päivitetty: 21.01.2020 10:50
Selkeää  
Selkeää  
   Tuuli: Länsi 6.7 m/s
Tuuli: Länsi 6.7 m/s
Lämpötila: 3°C
Tuulen hyytävyys: -2°C
Kastepiste: -3°C
Kosteus: 65%
Ilmanpaine: 1005 hPa
Näkyvyys: Enemmän kuin 10 km
Pilvitiedot: Selkeää
EFSI 210850Z AUTO 27013KT 230V320 CAVOK 03/M03 Q1005
EFMI - Mikkeli, Finland
Etäisyys asemalta: Itäkaakko 147 km
Päivitetty: 21.01.2020 10:50
Selkeää  
Selkeää  
   Tuuli: Länsi 8.7 m/s
Tuuli: Länsi 8.7 m/s
Lämpötila: 5°C
Tuulen hyytävyys: 0°C
Kastepiste: -2°C
Kosteus: 61%
Ilmanpaine: 1000 hPa
Näkyvyys: Enemmän kuin 10 km
Pilvitiedot: Selkeää
EFMI 210850Z AUTO 27017KT 250V320 CAVOK 05/M02 Q1000
EFPO - Pori (Mil/Civ), Finland
Etäisyys asemalta: Länsilounas 154 km
Päivitetty: 21.01.2020 10:50
Selkeää  
Selkeää  
   Tuuli: Länsiluode 9.3 m/s
Tuuli: Länsiluode 9.3 m/s
Lämpötila: 5°C
Tuulen hyytävyys: 0°C
Kastepiste: -2°C
Kosteus: 61%
Ilmanpaine: 1010 hPa
Näkyvyys: Enemmän kuin 10 km
Pilvitiedot: Selkeää
EFPO 210850Z AUTO 29018KT CAVOK 05/M02 Q1010
EFUT - Utti (Fin-Afb), Finland
Etäisyys asemalta: Kaakko 180 km
Päivitetty: 21.01.2020 10:50
Melkein pilvistä  
Melkein pilvistä  
   Tuuli: Länsiluode 6.2 m/s<br />Puuska 6.2 m/s
Tuuli: Länsiluode 6.2 m/s
Puuska 6.2 m/s
Lämpötila: 6°C
Tuulen hyytävyys: 2°C
Kastepiste: 0°C
Kosteus: 66%
Ilmanpaine: 1001 hPa
Pilvisyys: Melkein pilvistä
Näkyvyys: Enemmän kuin 10 km
Pilvitiedot: Vähäistä pilvisyyttä 1067 m,
Melkein pilvistä 5486 m
EFUT 210850Z 30012G25KT 260V340 9999 FEW035 BKN180 06/00 Q1001
EFVA - Vaasa, Finland
Etäisyys asemalta: Luode 180 km
Päivitetty: 21.01.2020 10:50
Selkeää  
Selkeää  
   Tuuli: Länsi 6.7 m/s
Tuuli: Länsi 6.7 m/s
Lämpötila: 4°C
Tuulen hyytävyys: -1°C
Kastepiste: -4°C
Kosteus: 56%
Ilmanpaine: 1006 hPa
Näkyvyys: Enemmän kuin 10 km
Pilvitiedot: Selkeää
EFVA 210850Z AUTO 27013KT CAVOK 04/M04 Q1006
EFHK - Helsinki/Vantaa, Finland
Etäisyys asemalta: Etelä 191 km
Päivitetty: 21.01.2020 10:50
Selkeää  
Selkeää  
   Tuuli: Länsiluode 10.8 m/s
Tuuli: Länsiluode 10.8 m/s
Lämpötila: 7°C
Tuulen hyytävyys: 2°C
Kastepiste: -1°C
Kosteus: 57%
Ilmanpaine: 1005 hPa
Näkyvyys: Enemmän kuin 10 km
Pilvitiedot: Selkeää
EFHK 210850Z 30021KT CAVOK 07/M01 Q1005 TEMPO 30022G32KT

Alkuperäinen skripti  Saratoga-weather.org Sovitettu myös templatelle  Weerstation Leuven

Laitteet joita käytämme:

Sääasema
Davis VP2

Sääasemaohjelma
Cumulus

Sääaseman palvelin
HP ProBook 6460b

Palveluntarjoaja
Radicenter

Davis VP2

Cumulus

HP ProBook 6460b

Radicenter




Flag Counter Cumulus Top Weather Sites